LTFJLTBJ

Guest
Details From LTFJ - SABIHA GOKCEN
To LTBJ - ADNAN MENDERES
Flight Number -
Tags generated
Created
Modified
Stats Distance 187 nm / 346 km
Max Altitude 16,200 ft / 4,938 m
Waypoints 3
Social Downloads 2
Likes 0
Share VATSIM

Download

Looking for another format? Having issues loading an existing format? Contact us
Advertisement - Login to hide

Notes

Basic altitude profile: - Ascent Rate: 2500ft/min - Ascent Speed: 250kts - Cruise Altitude: 32000ft - Cruise Speed: 420kts - Descent Rate: 1500ft/min - Descent Speed: 250kts Options: - Use NATs: yes - Use PACOTS: yes - Use low airways: yes - Use high airways: yes

Route

LTFJ ATKAN LTBJ

ID Type Via Altitude Latitude Longitude Leg Dist Tot Dist Heading (true) Name
O LTFJ APT - 0 ft / 0 m 40.89855˚ 29.30922˚ - 0 nm - SABIHA GOKCEN
ATKAN FIX - 16,200 ft / 4,938 m 39.52000˚ 27.84944˚ 106 nm 106 nm 219° / 218° -
O LTBJ APT - 0 ft / 0 m 38.29221˚ 27.15594˚ 80 nm 187 nm 204° / 204° ADNAN MENDERES

Altitude Profile

Advertisement - Login to hide

Weather


0- 5 10 15 20 25 30 35+ Temperature / ° C

Clouds and Precipitation
Forecast for 2017-12-12 12:00 UTC. Updated an hour ago

Ground ~20,000 ft ~40,000 ft Winds

LTFJ

Details ICAO LTFJ (SAW)
Name SABIHA GOKCEN
Region Turkey
Timezone Europe/Istanbul (UTC+3.0)
Stats Elevation 312 ft / 95 m (AMSL)
Location 40.898552° 29.309221°
Runways 1
Magnetic Variation 5.473° E

METAR

LTFJ 121020Z 18006KT CAVOK 15/09 Q1022 NOSIG

Decode

TAF

Not found

Departure Runways

ID Width Length Bearing (true) Bearing (mag) Surface Threshold Offset Overrun Length
06 148 ft / 45 m 9,690 ft / 2,953 m 64.01° 58.54° Concrete 0 ft / 0 m 197 ft / 60 m
24 148 ft / 45 m 9,690 ft / 2,953 m 244.03° 238.56° Concrete 0 ft / 0 m 197 ft / 60 m

LTBJ

Details ICAO LTBJ (ADB)
Name ADNAN MENDERES
Region Turkey
Timezone Europe/Istanbul (UTC+3.0)
Stats Elevation 412 ft / 126 m (AMSL)
Location 38.292210° 27.155939°
Runways 2
Magnetic Variation 4.895° E

METAR

LTBJ 121020Z 16005KT 9999 FEW030 SCT100 16/12 Q1023 NOSIG

Decode

TAF

Not found

Destination Runways

ID Width Length Bearing (true) Bearing (mag) Surface Threshold Offset Overrun Length
16L 147 ft / 45 m 10,635 ft / 3,242 m 166.78° 161.89° Asphalt 0 ft / 0 m 197 ft / 60 m
16R 147 ft / 45 m 10,651 ft / 3,246 m 166.71° 161.82° Concrete 0 ft / 0 m 197 ft / 60 m
34L 147 ft / 45 m 10,651 ft / 3,246 m 346.72° 341.83° Concrete 0 ft / 0 m 197 ft / 60 m
34R 147 ft / 45 m 10,635 ft / 3,242 m 346.79° 341.90° Asphalt 0 ft / 0 m 197 ft / 60 m

Approach Navaids

Runway Type Ident Frequency Range Bearing (true) Bearing (mag) Slope Elevation
16L Localiser IIMR 108.50 MHz 18 nm / 33 km 166.52° 161.62° - 412 ft / 126 m (AMSL)
16L Glidescope IIMR 108.50 MHz 10 nm / 19 km 166.78° 161.89° 3.10° 412 ft / 126 m (AMSL)
34R Localiser IMEN 110.30 MHz 18 nm / 33 km 346.86° 341.96° - 412 ft / 126 m (AMSL)
34R Glidescope IMEN 110.30 MHz 10 nm / 19 km 346.79° 341.89° 3.00° 412 ft / 126 m (AMSL)

Popular Alternatives